Wanting a flying challenge?

A forum for everything else that does not fit into the other categories

Wanting a flying challenge?

Postby cowpatz » Mon Feb 12, 2018 1:02 pm

Tonga's latest forecast.

TAF NFTF 112331Z 1200/1224 22015G30KT 7000 SCT007 BKN015 BKN100
TEMPO 1203/1215 25035G50KT 1000 +RA BKN008 BKN012
TEMPO 1215/1224 30099KT 0500 +RA BKN008 BKN012

Glad I'm not going there.
User avatar
cowpatz
NZFF Pro
 
Topic author
Joined: Wed Mar 07, 2007 3:28 pm
Posts: 2489

Return to Off Topic

Who is online

Users browsing this forum: No registered users and 4 guests